Time;durP1;ratioP1;P1;durP2;ratioP2;P2;SDS_P1;SDS_P2;PMS_P1;PMS_P2;Temp;Humidity;BMP_temperature;BMP_pressure;BME280_temperature;BME280_humidity;BME280_pressure;Samples;Min_cycle;Max_cycle;Signal;HPM_P1;HPM_P2
2023/12/04 00:00:45;;;;;;;9.32;7.88;;;;;;;7.96;100.00;98502.31;5050686;28;20304;-55
2023/12/04 00:03:10;;;;;;;9.13;7.45;;;;;;;7.79;100.00;98465.53;5050750;28;20247;-55
2023/12/04 00:05:36;;;;;;;9.98;7.97;;;;;;;8.38;100.00;98561.75;5050958;28;20174;-55
2023/12/04 00:08:01;;;;;;;9.68;6.97;;;;;;;8.12;100.00;98507.41;5050711;28;20188;-55
2023/12/04 00:10:27;;;;;;;8.50;6.75;;;;;;;8.50;100.00;98591.16;5050933;28;20232;-55
2023/12/04 00:12:52;;;;;;;7.93;7.10;;;;;;;7.88;100.00;98540.56;5050697;28;20493;-55
2023/12/04 00:15:19;;;;;;;9.27;7.40;;;;;;;7.73;100.00;98523.38;5050772;28;20299;-55
2023/12/04 00:17:45;;;;;;;12.15;8.18;;;;;;;8.02;100.00;98558.66;5050521;28;20243;-55
2023/12/04 00:20:10;;;;;;;9.82;8.40;;;;;;;7.74;100.00;98530.19;5050462;28;20699;-54
2023/12/04 00:22:37;;;;;;;10.38;7.72;;;;;;;7.40;100.00;98501.22;5050184;28;20182;-55
2023/12/04 00:25:04;;;;;;;9.15;7.68;;;;;;;7.48;100.00;98535.09;5050440;28;20225;-55
2023/12/04 00:27:29;;;;;;;9.55;7.88;;;;;;;7.72;100.00;98560.34;5050443;28;20201;-54
2023/12/04 00:29:55;;;;;;;10.75;9.02;;;;;;;7.70;100.00;98541.56;5050447;28;20181;-55
2023/12/04 00:32:20;;;;;;;9.35;7.63;;;;;;;7.85;100.00;98561.31;5050481;28;20206;-55
2023/12/04 00:34:46;;;;;;;10.45;8.27;;;;;;;7.39;100.00;98490.09;5050367;28;20580;-55
2023/12/04 00:37:11;;;;;;;9.63;7.70;;;;;;;8.22;100.00;98633.13;5050305;28;20177;-55
2023/12/04 00:39:37;;;;;;;9.63;7.57;;;;;;;8.02;100.00;98589.56;5050330;28;20173;-55
2023/12/04 00:42:02;;;;;;;11.75;7.82;;;;;;;7.81;100.00;98540.97;5047809;28;20182;-55
2023/12/04 00:44:28;;;;;;;8.32;7.30;;;;;;;7.81;100.00;98528.91;5038631;28;20186;-55
2023/12/04 00:46:53;;;;;;;12.43;7.75;;;;;;;8.30;100.00;98615.50;5028826;28;20183;-55
2023/12/04 00:49:19;;;;;;;11.20;8.32;;;;;;;7.99;100.00;98558.81;5029716;28;20178;-54
2023/12/04 00:51:44;;;;;;;12.55;7.93;;;;;;;7.60;100.00;98529.28;5029621;28;20641;-55
2023/12/04 00:54:11;;;;;;;7.90;7.03;;;;;;;7.66;100.00;98529.78;5030372;28;20175;-55
2023/12/04 00:56:39;;;;;;;9.45;8.25;;;;;;;8.27;100.00;98631.13;5032642;28;20271;-55
2023/12/04 00:59:06;;;;;;;8.07;7.13;;;;;;;7.78;100.00;98536.81;5033791;28;20182;-55
2023/12/04 01:01:32;;;;;;;10.20;7.20;;;;;;;8.22;100.00;98612.50;5033412;28;20580;-55
2023/12/04 01:03:58;;;;;;;9.43;7.43;;;;;;;8.33;100.00;98625.63;5033755;28;20265;-55
2023/12/04 01:06:23;;;;;;;8.90;6.90;;;;;;;7.79;100.00;98540.22;5033595;28;20614;-55
2023/12/04 01:08:50;;;;;;;10.40;7.32;;;;;;;8.03;100.00;98591.22;5033706;28;20198;-55
2023/12/04 01:11:17;;;;;;;8.55;7.05;;;;;;;8.17;100.00;98614.50;5033685;28;20185;-55
2023/12/04 01:13:42;;;;;;;9.95;7.40;;;;;;;8.06;100.00;98593.66;5033679;28;20212;-55
2023/12/04 01:16:09;;;;;;;10.00;7.38;;;;;;;8.37;100.00;98652.91;5033762;28;20627;-55
2023/12/04 01:18:34;;;;;;;8.70;7.40;;;;;;;8.41;100.00;98643.25;5033681;28;20191;-55
2023/12/04 01:21:00;;;;;;;9.75;7.05;;;;;;;8.11;100.00;98606.25;5033553;28;20208;-55
2023/12/04 01:23:25;;;;;;;7.80;6.80;;;;;;;7.78;100.00;98565.16;5033123;28;20269;-55
2023/12/04 01:25:51;;;;;;;10.75;8.70;;;;;;;8.16;100.00;98617.16;5033272;28;20175;-55
2023/12/04 01:28:16;;;;;;;9.90;6.88;;;;;;;8.35;100.00;98636.69;5033294;28;20185;-55
2023/12/04 01:30:55;;;;;;;8.35;7.10;;;;;;;8.18;100.00;98611.00;5033315;28;20320;-55
2023/12/04 01:33:21;;;;;;;10.35;7.75;;;;;;;8.28;100.00;98643.09;5033290;28;20170;-55
2023/12/04 01:35:46;;;;;;;8.00;7.13;;;;;;;8.32;100.00;98642.00;5033146;28;20664;-55
2023/12/04 01:38:12;;;;;;;10.27;7.60;;;;;;;8.12;100.00;98615.66;5030434;28;20197;-55
2023/12/04 01:40:37;;;;;;;9.82;7.97;;;;;;;7.94;100.00;98599.47;5030527;28;20696;-55
2023/12/04 01:43:03;;;;;;;10.55;8.07;;;;;;;7.63;100.00;98602.03;5030646;28;20249;-55
2023/12/04 01:45:28;;;;;;;11.43;8.20;;;;;;;7.78;100.00;98624.41;5030511;28;20175;-55
2023/12/04 01:47:54;;;;;;;10.13;8.68;;;;;;;7.60;100.00;98581.63;5030497;28;20194;-55
2023/12/04 01:50:20;;;;;;;8.82;7.38;;;;;;;8.08;100.00;98658.78;5030277;28;20192;-55
2023/12/04 01:52:46;;;;;;;9.18;7.68;;;;;;;7.89;100.00;98650.41;5030262;28;20195;-55
2023/12/04 01:55:13;;;;;;;10.73;8.20;;;;;;;7.95;100.00;98667.28;5030032;28;20179;-55
2023/12/04 01:57:39;;;;;;;9.57;7.53;;;;;;;7.88;100.00;98671.94;5030064;28;20244;-55
2023/12/04 02:00:11;;;;;;;9.98;7.50;;;;;;;7.85;100.00;98677.25;5029843;28;20202;-55
2023/12/04 02:02:38;;;;;;;9.35;8.07;;;;;;;7.81;100.00;98656.88;5030029;28;20182;-55
2023/12/04 02:05:05;;;;;;;9.35;7.85;;;;;;;7.96;100.00;98668.94;5029847;28;20232;-55
2023/12/04 02:07:31;;;;;;;10.77;8.13;;;;;;;7.83;100.00;98648.16;5029793;28;20186;-55
2023/12/04 02:09:57;;;;;;;9.80;7.57;;;;;;;7.97;100.00;98663.69;5032234;28;20186;-55
2023/12/04 02:12:22;;;;;;;10.15;7.90;;;;;;;7.32;100.00;98571.13;5032887;28;20566;-55
2023/12/04 02:14:48;;;;;;;8.52;7.50;;;;;;;7.38;100.00;98563.06;5032833;28;20182;-55
2023/12/04 02:17:15;;;;;;;9.63;8.13;;;;;;;7.94;100.00;98647.56;5032949;28;20186;-55
2023/12/04 02:19:41;;;;;;;14.80;10.98;;;;;;;7.47;100.00;98596.03;5032722;28;20268;-55
2023/12/04 02:22:07;;;;;;;8.63;7.32;;;;;;;7.55;100.00;98652.28;5032746;28;20221;-55
2023/12/04 02:24:34;;;;;;;9.93;7.55;;;;;;;7.41;100.00;98627.25;5032375;28;20175;-55
2023/12/04 02:27:10;;;;;;;9.95;7.30;;;;;;;7.78;100.00;98693.94;5032350;28;20630;-55
2023/12/04 02:29:43;;;;;;;10.00;7.90;;;;;;;7.86;100.00;98696.94;5032637;28;20178;-54
2023/12/04 02:32:13;;;;;;;8.48;7.57;;;;;;;7.62;100.00;98651.88;5032594;28;20182;-55
2023/12/04 02:34:41;;;;;;;9.73;8.50;;;;;;;7.38;100.00;98647.16;5032498;28;20189;-54
2023/12/04 02:37:09;;;;;;;10.95;7.25;;;;;;;7.82;100.00;98710.88;5032440;28;20269;-54
2023/12/04 02:39:36;;;;;;;8.18;7.35;;;;;;;6.64;100.00;98534.47;5032376;28;20177;-55
2023/12/04 02:42:02;;;;;;;8.77;7.10;;;;;;;7.58;100.00;98695.91;5032315;28;20206;-54
2023/12/04 02:44:27;;;;;;;9.77;7.50;;;;;;;7.04;100.00;98614.63;5032336;28;20660;-54
2023/12/04 02:46:52;;;;;;;9.45;7.88;;;;;;;7.44;100.00;98694.03;5032284;28;20196;-55
2023/12/04 02:49:18;;;;;;;9.20;7.68;;;;;;;7.07;100.00;98660.78;5032181;28;20642;-55
2023/12/04 02:51:43;;;;;;;9.68;7.80;;;;;;;6.73;100.00;98616.25;5031828;28;20265;-55
2023/12/04 02:54:09;;;;;;;11.32;7.85;;;;;;;7.24;100.00;98698.53;5032142;28;20248;-55
2023/12/04 02:56:34;;;;;;;8.88;7.95;;;;;;;6.76;100.00;98657.25;5032119;28;20186;-54
2023/12/04 02:59:00;;;;;;;11.55;8.80;;;;;;;6.84;100.00;98681.69;5031831;28;20170;-54
2023/12/04 03:01:25;;;;;;;10.82;8.85;;;;;;;6.35;100.00;98600.16;5031915;28;20238;-55
2023/12/04 03:03:51;;;;;;;12.25;8.40;;;;;;;7.01;100.00;98707.41;5031947;28;20186;-54
2023/12/04 03:06:16;;;;;;;10.20;8.40;;;;;;;6.77;100.00;98675.16;5031910;28;20190;-55
2023/12/04 03:08:42;;;;;;;10.68;8.05;;;;;;;6.67;100.00;98663.69;5031550;28;20183;-54
2023/12/04 03:11:08;;;;;;;11.98;8.10;;;;;;;6.33;100.00;98617.38;5031820;28;20187;-55
2023/12/04 03:13:34;;;;;;;11.85;8.07;;;;;;;6.70;100.00;98668.66;5031808;28;20179;-55
2023/12/04 03:15:59;;;;;;;10.57;9.23;;;;;;;6.98;100.00;98694.69;5031500;28;20170;-55
2023/12/04 03:18:25;;;;;;;10.23;8.68;;;;;;;7.15;100.00;98730.69;5030936;28;20225;-55
2023/12/04 03:20:52;;;;;;;9.95;8.18;;;;;;;6.74;100.00;98685.59;5031691;28;20217;-56
2023/12/04 03:23:17;;;;;;;10.93;8.77;;;;;;;6.56;100.00;98665.94;5031658;28;20183;-55
2023/12/04 03:25:42;;;;;;;9.13;7.85;;;;;;;7.02;100.00;98733.94;5031577;28;20170;-55
2023/12/04 03:28:08;;;;;;;10.93;8.20;;;;;;;6.71;100.00;98679.78;5028984;28;20189;-55
2023/12/04 03:30:33;;;;;;;8.82;7.82;;;;;;;6.84;100.00;98722.84;5029146;28;20197;-55
2023/12/04 03:32:59;;;;;;;13.40;11.05;;;;;;;6.64;100.00;98732.41;5029160;28;20196;-54
2023/12/04 03:35:24;;;;;;;12.95;9.23;;;;;;;6.73;100.00;98740.50;5029089;28;20611;-54
2023/12/04 03:37:50;;;;;;;11.55;9.20;;;;;;;6.71;100.00;98710.63;5029110;28;20194;-55
2023/12/04 03:40:16;;;;;;;10.95;9.50;;;;;;;6.89;100.00;98746.59;5028923;28;20233;-54
2023/12/04 03:42:42;;;;;;;9.93;8.93;;;;;;;6.50;100.00;98676.50;5028890;28;20226;-54
2023/12/04 03:45:07;;;;;;;9.60;7.55;;;;;;;6.85;100.00;98723.66;5029031;28;20244;-54
2023/12/04 03:47:33;;;;;;;10.63;7.63;;;;;;;6.58;100.00;98669.25;5028995;28;20676;-54
2023/12/04 03:49:58;;;;;;;8.45;7.65;;;;;;;6.99;100.00;98714.34;5029000;28;20175;-55
2023/12/04 03:52:24;;;;;;;8.23;7.32;;;;;;;7.16;100.00;98729.78;5028876;28;20295;-55
2023/12/04 03:54:49;;;;;;;9.25;7.28;;;;;;;6.91;100.00;98738.78;5029224;28;20190;-54
2023/12/04 03:57:15;;;;;;;8.07;7.28;;;;;;;7.13;100.00;98750.53;5028928;28;20218;-55
2023/12/04 03:59:40;;;;;;;9.35;8.27;;;;;;;7.19;100.00;98754.53;5030351;28;20569;-55
2023/12/04 04:02:06;;;;;;;11.02;9.85;;;;;;;6.73;100.00;98670.25;5031150;28;20216;-55
2023/12/04 04:04:31;;;;;;;15.85;10.90;;;;;;;7.10;100.00;98755.81;5031230;28;20167;-55
2023/12/04 04:06:57;;;;;;;10.95;8.90;;;;;;;6.83;100.00;98716.00;5031239;28;20178;-55
2023/12/04 04:09:22;;;;;;;10.05;8.82;;;;;;;7.02;100.00;98745.09;5031440;28;20182;-55
2023/12/04 04:11:48;;;;;;;13.95;10.30;;;;;;;7.07;100.00;98775.72;5031220;28;20174;-54
2023/12/04 04:14:14;;;;;;;13.75;10.45;;;;;;;6.40;100.00;98688.13;5031094;28;20186;-55
2023/12/04 04:16:40;;;;;;;12.15;8.98;;;;;;;6.71;100.00;98724.31;5031082;28;20179;-55
2023/12/04 04:19:06;;;;;;;10.63;8.15;;;;;;;6.81;100.00;98728.13;5031169;28;20190;-54
2023/12/04 04:21:31;;;;;;;11.00;8.13;;;;;;;6.66;100.00;98723.72;5030910;28;20260;-55
2023/12/04 04:23:57;;;;;;;8.90;7.50;;;;;;;6.50;100.00;98727.06;5031067;28;20649;-54
2023/12/04 04:26:22;;;;;;;10.45;7.90;;;;;;;6.39;100.00;98709.59;5030951;28;20179;-54
2023/12/04 04:28:47;;;;;;;9.48;8.00;;;;;;;6.55;100.00;98746.53;5030997;28;20558;-54
2023/12/04 04:31:13;;;;;;;9.95;7.47;;;;;;;6.46;100.00;98716.09;5034670;28;20202;-55
2023/12/04 04:33:38;;;;;;;8.90;7.80;;;;;;;6.57;100.00;98739.56;5034516;28;20236;-55
2023/12/04 04:36:04;;;;;;;8.73;7.70;;;;;;;6.40;100.00;98725.88;5034834;28;20181;-55
2023/12/04 04:38:30;;;;;;;11.25;8.00;;;;;;;6.34;100.00;98752.66;5034646;28;20178;-55
2023/12/04 04:40:55;;;;;;;14.02;9.13;;;;;;;6.61;100.00;98794.25;5034540;28;20215;-55
2023/12/04 04:43:21;;;;;;;14.18;10.23;;;;;;;6.52;100.00;98767.22;5034625;28;20182;-55
2023/12/04 04:45:46;;;;;;;18.50;12.00;;;;;;;6.66;100.00;98780.28;5034597;28;20202;-55
2023/12/04 04:48:12;;;;;;;13.73;10.27;;;;;;;6.58;100.00;98781.56;5034520;28;20633;-55
2023/12/04 04:50:37;;;;;;;12.35;9.48;;;;;;;6.19;100.00;98753.34;5035951;28;20680;-55
2023/12/04 04:53:03;;;;;;;9.23;8.18;;;;;;;5.72;100.00;98712.72;5054026;28;20192;-55
2023/12/04 04:55:30;;;;;;;10.07;8.55;;;;;;;5.73;100.00;98711.81;5054283;28;20174;-55
2023/12/04 04:57:55;;;;;;;10.90;8.93;;;;;;;5.56;100.00;98704.88;5053904;28;20178;-55
2023/12/04 05:00:21;;;;;;;12.98;10.18;;;;;;;5.85;100.00;98757.50;5054149;28;20323;-55
2023/12/04 05:02:46;;;;;;;15.82;10.70;;;;;;;5.87;100.00;98777.09;5054127;28;20212;-55
2023/12/04 05:05:12;;;;;;;12.88;10.60;;;;;;;5.97;100.00;98783.50;5054130;28;20178;-55
2023/12/04 05:07:37;;;;;;;11.40;9.55;;;;;;;6.23;100.00;98820.88;5054060;28;20174;-55
2023/12/04 05:10:03;;;;;;;13.65;9.32;;;;;;;6.05;100.00;98776.28;5053781;28;20174;-55
2023/12/04 05:12:29;;;;;;;13.80;10.00;;;;;;;6.31;100.00;98819.63;5053975;28;20195;-55
2023/12/04 05:14:54;;;;;;;13.68;10.07;;;;;;;6.05;100.00;98765.16;5053623;28;20177;-55
2023/12/04 05:17:20;;;;;;;11.75;8.98;;;;;;;5.98;100.00;98738.09;5053767;28;20209;-55
2023/12/04 05:19:45;;;;;;;15.27;10.32;;;;;;;6.63;100.00;98820.69;5053956;28;20565;-55
2023/12/04 05:22:11;;;;;;;15.63;10.85;;;;;;;6.34;100.00;98765.50;5053717;28;20205;-55
2023/12/04 05:24:36;;;;;;;20.23;12.23;;;;;;;6.89;100.00;98841.75;5053770;28;20177;-55
2023/12/04 05:27:02;;;;;;;14.32;11.25;;;;;;;6.55;100.00;98779.94;5053748;28;20228;-54
2023/12/04 05:29:28;;;;;;;16.33;11.73;;;;;;;6.84;100.00;98838.56;5053655;28;20184;-55
2023/12/04 05:31:53;;;;;;;12.10;9.48;;;;;;;6.77;100.00;98846.63;5053678;28;20177;-55
2023/12/04 05:34:19;;;;;;;14.55;9.30;;;;;;;6.24;100.00;98766.81;5053563;28;20228;-54
2023/12/04 05:36:44;;;;;;;12.40;9.48;;;;;;;6.54;100.00;98811.69;5053527;28;20169;-54
2023/12/04 05:39:10;;;;;;;12.93;9.82;;;;;;;6.41;100.00;98764.31;5053536;28;20640;-54
2023/12/04 05:41:35;;;;;;;14.85;9.38;;;;;;;6.68;100.00;98845.31;5052576;28;20209;-55
2023/12/04 05:44:01;;;;;;;17.92;10.73;;;;;;;6.42;100.00;98816.56;5053398;28;20178;-54
2023/12/04 05:46:27;;;;;;;15.00;10.00;;;;;;;6.31;100.00;98835.03;5053380;28;20561;-55
2023/12/04 05:48:53;;;;;;;16.80;10.10;;;;;;;6.33;100.00;98842.66;5053367;28;20205;-55
2023/12/04 05:51:19;;;;;;;15.57;9.85;;;;;;;6.34;100.00;98845.16;5053278;28;20586;-54
2023/12/04 05:53:44;;;;;;;12.40;10.77;;;;;;;6.40;100.00;98829.47;5053502;28;20181;-54
2023/12/04 05:56:10;;;;;;;12.68;10.07;;;;;;;6.59;100.00;98884.28;5053158;28;20181;-54
2023/12/04 05:58:36;;;;;;;11.85;9.75;;;;;;;6.72;100.00;98887.16;5053120;28;20555;-55
2023/12/04 06:01:06;;;;;;;16.00;10.50;;;;;;;6.64;100.00;98859.19;5052561;28;20204;-55
2023/12/04 06:03:32;;;;;;;8.93;8.05;;;;;;;6.42;100.00;98819.94;5052978;28;20182;-54
2023/12/04 06:05:57;;;;;;;10.30;7.88;;;;;;;6.67;100.00;98882.22;5052985;28;20185;-54
2023/12/04 06:08:23;;;;;;;8.30;7.47;;;;;;;6.14;100.00;98799.00;5052958;28;20177;-54
2023/12/04 06:10:48;;;;;;;9.20;7.82;;;;;;;6.08;100.00;98796.69;5052891;28;20251;-55
2023/12/04 06:13:14;;;;;;;9.43;7.50;;;;;;;6.22;100.00;98816.59;5052602;28;20308;-55
2023/12/04 06:15:39;;;;;;;7.85;6.90;;;;;;;6.68;100.00;98876.16;5053073;28;20177;-54
2023/12/04 06:18:05;;;;;;;11.35;8.13;;;;;;;6.54;100.00;98860.53;5052992;28;20235;-55
2023/12/04 06:20:30;;;;;;;23.25;12.63;;;;;;;6.73;100.00;98904.22;5052601;28;20212;-55
2023/12/04 06:22:56;;;;;;;18.27;11.75;;;;;;;6.00;100.00;98814.16;5052718;28;20666;-55
2023/12/04 06:25:22;;;;;;;9.70;8.68;;;;;;;5.98;100.00;98821.09;5052318;28;20173;-55
2023/12/04 06:27:48;;;;;;;10.10;8.20;;;;;;;5.65;100.00;98822.50;5049990;28;20185;-55
2023/12/04 06:30:14;;;;;;;13.75;11.10;;;;;;;5.71;100.00;98901.84;5049696;28;20864;-55
2023/12/04 06:32:40;;;;;;;11.63;8.75;;;;;;;5.21;100.00;98827.81;5049412;28;20212;-55
2023/12/04 06:35:06;;;;;;;11.02;8.75;;;;;;;5.47;100.00;98858.41;5049954;28;20763;-55
2023/12/04 06:37:31;;;;;;;11.45;8.32;;;;;;;5.35;100.00;98844.31;5049894;28;20196;-55
2023/12/04 06:39:59;;;;;;;13.00;9.02;;;;;;;5.68;100.00;98878.03;5049790;28;20182;-55
2023/12/04 06:42:25;;;;;;;9.70;6.93;;;;;;;5.73;100.00;98861.56;5049816;28;20186;-55
2023/12/04 06:44:51;;;;;;;7.50;6.05;;;;;;;6.19;100.00;98928.06;5049816;28;20227;-55
2023/12/04 06:47:22;;;;;;;6.70;4.47;;;;;;;6.28;100.00;98909.69;5049738;28;20208;-55
2023/12/04 06:49:47;;;;;;;5.10;4.60;;;;;;;6.38;100.00;98926.38;5029733;28;20308;-55
2023/12/04 06:52:13;;;;;;;8.18;6.50;;;;;;;6.10;100.00;98866.81;5029697;28;20705;-55
2023/12/04 06:54:38;;;;;;;8.65;6.60;;;;;;;6.03;100.00;98847.44;5029727;28;20191;-55
2023/12/04 06:57:04;;;;;;;8.70;7.22;;;;;;;5.92;100.00;98859.06;5027024;28;20230;-55
2023/12/04 06:59:29;;;;;;;8.98;6.35;;;;;;;6.09;100.00;98846.31;4999595;28;20245;-55
2023/12/04 07:01:55;;;;;;;6.88;5.20;;;;;;;6.14;100.00;98844.38;5009596;28;20218;-55
2023/12/04 07:04:21;;;;;;;5.10;4.40;;;;;;;6.47;100.00;98933.66;5009488;28;20188;-55
2023/12/04 07:06:48;;;;;;;7.75;5.95;;;;;;;6.26;100.00;98893.50;5009168;28;20583;-55
2023/12/04 07:09:14;;;;;;;8.63;6.32;;;;;;;6.30;100.00;98915.56;5009152;28;20214;-55
2023/12/04 07:11:39;;;;;;;12.57;7.28;;;;;;;6.21;100.00;98880.03;5009470;28;20657;-55
2023/12/04 07:14:05;;;;;;;17.00;9.13;;;;;;;6.78;100.00;98944.28;5009264;28;20662;-56
2023/12/04 07:16:30;;;;;;;12.90;8.55;;;;;;;6.57;100.00;98882.69;5009287;28;20210;-55
2023/12/04 07:18:56;;;;;;;11.82;7.53;;;;;;;6.71;100.00;98899.16;5009044;28;20289;-55
2023/12/04 07:21:23;;;;;;;8.80;7.90;;;;;;;6.83;100.00;98916.59;5023963;28;20643;-55
2023/12/04 07:23:48;;;;;;;8.07;5.78;;;;;;;7.15;100.00;98967.44;5028990;28;20270;-56
2023/12/04 07:26:14;;;;;;;7.90;6.95;;;;;;;6.91;100.00;98927.38;5029030;28;20252;-55
2023/12/04 07:28:39;;;;;;;5.35;4.25;;;;;;;6.63;100.00;98883.25;5028995;28;20692;-55
2023/12/04 07:31:05;;;;;;;5.25;4.35;;;;;;;6.58;100.00;98884.38;5045618;28;20200;-55
2023/12/04 07:33:30;;;;;;;6.68;5.00;;;;;;;6.85;100.00;98926.81;5050994;28;20170;-55
2023/12/04 07:35:56;;;;;;;6.35;4.95;;;;;;;6.54;100.00;98883.66;5051257;28;20655;-55
2023/12/04 07:38:22;;;;;;;6.82;5.80;;;;;;;6.45;100.00;98875.53;5050383;28;20178;-56
2023/12/04 07:40:47;;;;;;;6.72;4.93;;;;;;;6.91;100.00;98967.69;5050865;28;20786;-55
2023/12/04 07:43:14;;;;;;;9.50;7.75;;;;;;;6.78;100.00;98918.56;5051097;28;20170;-55
2023/12/04 07:45:40;;;;;;;10.23;7.90;;;;;;;6.78;100.00;98931.44;5047945;28;20185;-55
2023/12/04 07:48:06;;;;;;;6.72;5.10;;;;;;;6.34;100.00;98870.88;5048821;28;20212;-55
2023/12/04 07:50:31;;;;;;;5.90;5.30;;;;;;;7.01;100.00;98964.66;5048889;28;20663;-56
2023/12/04 07:52:57;;;;;;;5.60;4.97;;;;;;;6.71;100.00;98896.59;5048890;28;20336;-55
2023/12/04 07:55:22;;;;;;;5.03;4.38;;;;;;;7.08;100.00;98917.16;5048257;28;20221;-55
2023/12/04 07:57:48;;;;;;;6.22;5.28;;;;;;;7.42;100.00;98955.84;5048856;28;20261;-56
2023/12/04 08:00:14;;;;;;;25.60;13.88;;;;;;;7.53;100.00;98958.75;5048616;28;20197;-55
2023/12/04 08:02:40;;;;;;;31.13;16.48;;;;;;;7.09;100.00;98877.66;5048702;28;20218;-56
2023/12/04 08:05:06;;;;;;;19.27;11.73;;;;;;;7.71;100.00;98977.63;5050553;28;20247;-56
2023/12/04 08:07:32;;;;;;;12.73;9.05;;;;;;;7.22;100.00;98894.19;5052765;28;20182;-56
2023/12/04 08:09:57;;;;;;;9.23;7.15;;;;;;;7.43;100.00;98923.22;5052441;28;20198;-56
2023/12/04 08:12:23;;;;;;;13.30;9.80;;;;;;;7.69;100.00;98975.13;5052690;28;20185;-56
2023/12/04 08:14:48;;;;;;;8.98;6.43;;;;;;;7.24;100.00;98923.28;5052716;28;20209;-55
2023/12/04 08:17:14;;;;;;;11.30;6.95;;;;;;;7.64;100.00;98994.28;5053910;28;20189;-55
2023/12/04 08:19:40;;;;;;;7.85;5.82;;;;;;;7.58;100.00;98989.44;5055132;28;20586;-55
2023/12/04 08:22:05;;;;;;;8.40;7.13;;;;;;;7.40;100.00;98957.66;5054956;28;20665;-55
2023/12/04 08:24:31;;;;;;;7.55;5.88;;;;;;;7.35;100.00;98938.19;5054927;28;20682;-56
2023/12/04 08:26:59;;;;;;;8.32;6.80;;;;;;;7.32;100.00;98916.00;5054609;28;20174;-54
2023/12/04 08:29:25;;;;;;;18.25;15.65;;;;;;;7.76;100.00;98998.84;5054781;28;20170;-54
2023/12/04 08:31:50;;;;;;;15.20;13.52;;;;;;;7.46;100.00;98953.97;5054732;28;20533;-54
2023/12/04 08:34:15;;;;;;;24.67;18.40;;;;;;;7.56;100.00;98963.75;5054763;28;20178;-55
2023/12/04 08:36:41;;;;;;;37.03;27.20;;;;;;;7.66;100.00;98971.88;5054759;28;20300;-55
2023/12/04 08:39:06;;;;;;;15.63;13.32;;;;;;;8.01;100.00;99007.91;5054664;28;20217;-55
2023/12/04 08:41:32;;;;;;;17.17;14.00;;;;;;;7.53;100.00;98920.16;5054516;28;20271;-55
2023/12/04 08:43:58;;;;;;;9.00;6.05;;;;;;;8.13;100.00;98998.72;5054595;28;20552;-54
2023/12/04 08:46:23;;;;;;;5.53;4.90;;;;;;;7.68;100.00;98921.94;5054429;28;20185;-55
2023/12/04 08:48:49;;;;;;;6.57;4.60;;;;;;;7.82;100.00;98958.16;5054557;28;20212;-54
2023/12/04 08:51:16;;;;;;;6.47;5.32;;;;;;;7.74;100.00;98938.88;5054495;28;20247;-55
2023/12/04 08:53:42;;;;;;;6.50;4.80;;;;;;;8.22;100.00;99016.38;5054533;28;20173;-54
2023/12/04 08:56:08;;;;;;;6.03;4.70;;;;;;;8.02;100.00;98976.06;5054081;28;20178;-54
2023/12/04 08:58:33;;;;;;;6.18;4.85;;;;;;;8.09;100.00;99002.38;5051778;28;20185;-55
2023/12/04 09:00:59;;;;;;;7.15;5.00;;;;;;;8.07;100.00;98992.16;5051835;28;20751;-55
2023/12/04 09:03:24;;;;;;;5.70;4.65;;;;;;;7.86;100.00;98964.03;5051760;28;20209;-54
2023/12/04 09:05:51;;;;;;;8.10;5.00;;;;;;;8.14;100.00;99021.84;5051654;28;20195;-55
2023/12/04 09:08:19;;;;;;;5.57;5.00;;;;;;;7.34;100.00;98887.63;5051742;28;20268;-55
2023/12/04 09:10:45;;;;;;;7.07;5.07;;;;;;;8.13;100.00;99009.88;5051749;28;20248;-54
2023/12/04 09:13:11;;;;;;;7.38;5.63;;;;;;;8.18;100.00;99015.66;5051567;28;20186;-54
2023/12/04 09:15:36;;;;;;;6.18;5.30;;;;;;;7.67;100.00;98912.56;5050804;28;20603;-55
2023/12/04 09:18:02;;;;;;;5.03;4.35;;;;;;;8.12;100.00;98997.06;5050872;28;20312;-54
2023/12/04 09:20:27;;;;;;;5.13;4.63;;;;;;;8.11;100.00;99000.56;5051457;28;20209;-54
2023/12/04 09:22:53;;;;;;;6.72;4.38;;;;;;;8.05;100.00;99001.69;5051550;28;20186;-54
2023/12/04 09:25:19;;;;;;;5.97;4.07;;;;;;;7.57;100.00;98946.56;5049964;28;20181;-55
2023/12/04 09:27:45;;;;;;;5.07;4.18;;;;;;;7.74;100.00;98955.13;5050579;28;20180;-55
2023/12/04 09:30:10;;;;;;;6.35;4.55;;;;;;;7.44;100.00;98909.44;5046597;28;20572;-55
2023/12/04 09:32:36;;;;;;;4.53;4.13;;;;;;;7.87;100.00;98965.69;5046570;28;20182;-55
2023/12/04 09:35:02;;;;;;;5.72;4.63;;;;;;;7.90;100.00;98963.78;5050826;28;20472;-54
2023/12/04 09:37:27;;;;;;;7.57;4.85;;;;;;;8.19;100.00;98988.13;5053113;28;20188;-55
2023/12/04 09:39:53;;;;;;;5.80;4.90;;;;;;;7.85;100.00;98934.84;5053149;28;20173;-54
2023/12/04 09:42:19;;;;;;;7.55;4.45;;;;;;;8.17;100.00;98977.91;5052932;28;20204;-55
2023/12/04 09:44:47;;;;;;;6.95;5.30;;;;;;;8.23;100.00;98975.06;5052915;28;20178;-54
2023/12/04 09:47:14;;;;;;;9.85;5.70;;;;;;;8.36;100.00;98986.41;5049891;28;20177;-55
2023/12/04 09:49:40;;;;;;;6.57;4.72;;;;;;;8.05;100.00;98919.22;5052874;28;20182;-55
2023/12/04 09:52:06;;;;;;;5.97;5.32;;;;;;;8.02;100.00;98914.22;5052794;28;20243;-55
2023/12/04 09:54:35;;;;;;;7.25;5.70;;;;;;;8.16;100.00;98931.59;5053025;28;20533;-55
2023/12/04 09:57:01;;;;;;;7.32;5.22;;;;;;;7.97;100.00;98900.75;5052983;28;20181;-55
2023/12/04 09:59:29;;;;;;;7.18;5.63;;;;;;;8.07;100.00;98919.16;5052815;28;20312;-55
2023/12/04 10:01:55;;;;;;;8.60;6.07;;;;;;;8.25;100.00;98931.97;5052769;28;20758;-55
2023/12/04 10:04:22;;;;;;;7.72;5.78;;;;;;;8.49;100.00;98987.44;5052767;28;20189;-54
2023/12/04 10:06:53;;;;;;;12.30;7.68;;;;;;;8.57;100.00;98998.19;5052505;28;20564;-55
2023/12/04 10:09:19;;;;;;;14.55;7.78;;;;;;;8.27;100.00;98940.44;5052829;28;20170;-54
2023/12/04 10:11:48;;;;;;;9.65;7.07;;;;;;;8.32;100.00;98943.63;5052713;28;20178;-54
2023/12/04 10:14:18;;;;;;;9.60;6.72;;;;;;;8.21;100.00;98922.72;5052660;28;20205;-55
2023/12/04 10:16:44;;;;;;;7.95;5.85;;;;;;;8.66;100.00;99000.31;5052647;28;20173;-55
2023/12/04 10:19:27;;;;;;;6.82;5.32;;;;;;;8.25;100.00;98939.72;5052106;28;20209;-55
2023/12/04 10:21:55;;;;;;;7.55;5.53;;;;;;;8.21;100.00;98933.03;5052551;28;20247;-55
2023/12/04 10:24:38;;;;;;;8.57;6.00;;;;;;;8.27;100.00;98919.84;5052554;28;20201;-54
2023/12/04 10:27:11;;;;;;;8.57;6.35;;;;;;;8.24;100.00;98914.84;5052128;28;20178;-54
2023/12/04 10:29:47;;;;;;;9.75;6.47;;;;;;;8.20;100.00;98912.47;5052601;28;20189;-54
2023/12/04 10:32:13;;;;;;;18.13;8.88;;;;;;;8.45;100.00;98959.31;5052601;28;20180;-55
2023/12/04 10:34:42;;;;;;;12.57;7.78;;;;;;;8.73;100.00;99001.66;5052204;28;20197;-54
2023/12/04 10:37:09;;;;;;;9.38;6.35;;;;;;;8.79;100.00;99006.50;5051366;28;20184;-55
2023/12/04 10:39:51;;;;;;;9.45;6.07;;;;;;;8.64;100.00;99015.06;5048111;28;20276;-54
2023/12/04 10:42:32;;;;;;;19.23;10.48;;;;;;;8.17;100.00;98959.88;5049796;28;20221;-54
2023/12/04 10:44:58;;;;;;;12.23;6.63;;;;;;;8.47;100.00;99004.75;5048853;28;20181;-55
2023/12/04 10:47:25;;;;;;;8.68;5.60;;;;;;;8.32;100.00;98966.03;5049691;28;20181;-55
2023/12/04 10:49:51;;;;;;;7.88;6.25;;;;;;;8.02;100.00;98914.22;5049677;28;20189;-55
2023/12/04 10:52:19;;;;;;;12.13;7.38;;;;;;;7.77;100.00;98871.72;5049710;28;20178;-55
2023/12/04 10:54:48;;;;;;;10.07;6.60;;;;;;;8.58;100.00;98999.88;5049697;28;20185;-55
2023/12/04 10:57:25;;;;;;;9.70;6.15;;;;;;;8.61;100.00;99007.44;5049659;28;20272;-55
2023/12/04 10:59:55;;;;;;;8.43;6.00;;;;;;;8.32;100.00;98948.78;5049692;28;20189;-55
2023/12/04 11:02:26;;;;;;;6.50;5.55;;;;;;;8.66;100.00;98994.31;5049499;28;20205;-55
2023/12/04 11:04:58;;;;;;;6.82;5.53;;;;;;;8.82;100.00;99005.50;5009646;28;20283;-55
2023/12/04 11:07:27;;;;;;;6.68;5.15;;;;;;;8.90;100.00;99019.69;5009840;28;20191;-55
2023/12/04 11:09:54;;;;;;;13.40;6.57;;;;;;;8.36;73.67;98970.09;5013928;28;20201;-55
2023/12/04 11:12:25;;;;;;;8.88;6.15;;;;;;;8.44;77.49;99007.47;5029542;28;20184;-55
2023/12/04 11:14:56;;;;;;;17.23;10.63;;;;;;;8.06;77.98;98963.88;5029507;28;20181;-55
2023/12/04 11:17:24;;;;;;;17.15;9.25;;;;;;;8.21;77.50;98999.25;5029275;28;20186;-55
2023/12/04 11:19:53;;;;;;;13.75;10.00;;;;;;;8.22;77.94;99013.78;5029363;28;20232;-55
2023/12/04 11:22:22;;;;;;;8.32;7.35;;;;;;;8.06;78.78;99000.78;5029210;28;20690;-55
2023/12/04 11:24:50;;;;;;;7.25;6.50;;;;;;;7.93;79.13;98971.34;5029211;28;20175;-55